createdAt,value
2018-11-11T00:00:20.005Z,32.87
2018-11-11T00:02:49.443Z,34.13
2018-11-11T00:05:20.624Z,35.50
2018-11-11T00:07:49.334Z,36.80
2018-11-11T00:10:18.609Z,34.03
2018-11-11T00:12:47.404Z,33.27
2018-11-11T00:15:17.089Z,39.23
2018-11-11T00:17:47.828Z,33.57
2018-11-11T00:20:16.674Z,35.27
2018-11-11T00:22:48.732Z,31.97
2018-11-11T00:25:17.821Z,37.13
2018-11-11T00:27:46.479Z,32.57
2018-11-11T00:30:16.521Z,36.07
2018-11-11T00:32:46.378Z,30.87
2018-11-11T00:35:15.138Z,36.13
2018-11-11T00:37:43.829Z,35.83
2018-11-11T00:40:13.958Z,40.67
2018-11-11T00:42:42.789Z,33.33
2018-11-11T00:45:12.137Z,34.03
2018-11-11T00:47:42.466Z,34.67
2018-11-11T00:50:11.852Z,32.53
2018-11-11T00:52:40.757Z,32.80
2018-11-11T00:55:11.924Z,37.37
2018-11-11T00:57:41.382Z,34.13
2018-11-11T01:00:12.728Z,29.07
2018-11-11T01:02:41.965Z,31.53
2018-11-11T01:05:11.788Z,31.00
2018-11-11T01:07:42.135Z,29.57
2018-11-11T01:10:12.651Z,30.93
2018-11-11T01:12:42.286Z,30.07
2018-11-11T01:15:12.481Z,30.10
2018-11-11T01:17:42.910Z,37.10
2018-11-11T01:20:12.950Z,30.90
2018-11-11T01:22:41.922Z,32.93
2018-11-11T01:25:12.531Z,33.90
2018-11-11T01:27:42.881Z,31.23
2018-11-11T01:30:11.693Z,31.20
2018-11-11T01:32:40.454Z,30.47
2018-11-11T01:35:12.928Z,33.07
2018-11-11T01:37:42.884Z,31.60
2018-11-11T01:40:12.650Z,31.13
2018-11-11T01:42:41.316Z,35.80
2018-11-11T01:45:15.802Z,32.93
2018-11-11T01:47:45.331Z,32.27
2018-11-11T01:50:14.205Z,32.33
2018-11-11T01:52:44.998Z,28.60
2018-11-11T01:55:14.273Z,30.77
2018-11-11T01:57:43.063Z,31.50
2018-11-11T02:00:22.085Z,31.73
2018-11-11T02:02:50.765Z,38.40
2018-11-11T02:05:19.420Z,35.60
2018-11-11T02:07:48.857Z,30.30
2018-11-11T02:10:17.538Z,33.20
2018-11-11T02:12:46.759Z,32.87
2018-11-11T02:15:17.473Z,31.57
2018-11-11T02:17:47.761Z,33.43
2018-11-11T02:20:18.587Z,28.53
2018-11-11T02:22:48.242Z,33.23
2018-11-11T02:25:18.383Z,31.90
2018-11-11T02:27:47.526Z,31.60
2018-11-11T02:30:18.407Z,31.70
2018-11-11T02:32:48.349Z,31.77
2018-11-11T02:35:17.013Z,34.40
2018-11-11T02:37:46.587Z,30.10
2018-11-11T02:40:18.188Z,33.03
2018-11-11T02:42:48.454Z,34.50
2018-11-11T02:45:18.406Z,31.50
2018-11-11T02:47:47.083Z,35.67
2018-11-11T02:50:17.038Z,34.57
2018-11-11T02:52:46.157Z,31.53
2018-11-11T02:55:15.162Z,31.77
2018-11-11T02:57:45.909Z,32.43
2018-11-11T03:00:15.761Z,34.70
2018-11-11T03:02:45.207Z,32.20
2018-11-11T03:05:19.304Z,33.40
2018-11-11T03:07:48.017Z,33.83
2018-11-11T03:10:17.331Z,34.50
2018-11-11T03:12:46.913Z,34.73
2018-11-11T03:15:20.935Z,33.20
2018-11-11T03:17:49.585Z,33.77
2018-11-11T03:20:19.341Z,34.60
2018-11-11T03:22:48.637Z,33.60
2018-11-11T03:25:18.346Z,34.43
2018-11-11T03:27:47.020Z,33.67
2018-11-11T03:30:20.269Z,36.90
2018-11-11T03:32:48.944Z,37.43
2018-11-11T03:35:17.615Z,35.70
2018-11-11T03:37:48.141Z,34.37
2018-11-11T03:40:18.204Z,32.73
2018-11-11T03:42:47.207Z,33.33
2018-11-11T03:45:18.040Z,34.47
2018-11-11T03:47:47.700Z,34.80
2018-11-11T03:50:16.371Z,34.07
2018-11-11T03:52:45.350Z,34.33
2018-11-11T03:55:14.012Z,38.27
2018-11-11T03:57:42.679Z,34.57
2018-11-11T04:00:14.358Z,35.07
2018-11-11T04:02:43.987Z,32.23
2018-11-11T04:05:13.730Z,31.20
2018-11-11T04:07:42.560Z,33.77
2018-11-11T04:10:15.061Z,33.13
2018-11-11T04:12:44.811Z,36.80
2018-11-11T04:15:14.972Z,36.80
2018-11-11T04:17:45.686Z,32.00
2018-11-11T04:20:16.657Z,36.00
2018-11-11T04:22:45.308Z,31.67
2018-11-11T04:25:16.741Z,36.93
2018-11-11T04:27:45.483Z,35.27
2018-11-11T04:30:15.244Z,33.80
2018-11-11T04:32:44.697Z,35.17
2018-11-11T04:35:14.421Z,30.37
2018-11-11T04:37:43.082Z,33.40
2018-11-11T04:40:12.623Z,30.40
2018-11-11T04:42:41.294Z,31.83
2018-11-11T04:45:13.215Z,32.13
2018-11-11T04:47:42.080Z,33.00
2018-11-11T04:50:12.492Z,30.43
2018-11-11T04:52:41.618Z,31.87
2018-11-11T04:55:11.917Z,32.10
2018-11-11T04:57:41.207Z,30.57
2018-11-11T05:00:12.271Z,29.83
2018-11-11T05:02:41.148Z,31.03
2018-11-11T05:05:10.776Z,36.43
2018-11-11T05:07:41.458Z,33.70
2018-11-11T05:10:12.023Z,33.57
2018-11-11T05:12:40.832Z,34.13
2018-11-11T05:15:10.553Z,32.63
2018-11-11T05:17:40.505Z,36.10
2018-11-11T05:20:10.234Z,34.57
2018-11-11T05:22:38.868Z,29.00
2018-11-11T05:25:10.146Z,34.60
2018-11-11T05:27:38.816Z,36.57
2018-11-11T05:30:09.870Z,33.23
2018-11-11T05:32:39.781Z,33.93
2018-11-11T05:35:09.323Z,35.60
2018-11-11T05:37:38.289Z,33.53
2018-11-11T05:40:07.755Z,36.87
2018-11-11T05:42:36.372Z,32.37
2018-11-11T05:45:10.106Z,31.33
2018-11-11T05:47:38.999Z,30.77
2018-11-11T05:50:09.376Z,32.20
2018-11-11T05:52:38.560Z,33.27
2018-11-11T05:55:08.609Z,32.67
2018-11-11T05:57:37.244Z,37.57
2018-11-11T06:00:07.988Z,36.20
2018-11-11T06:02:37.293Z,38.97
2018-11-11T06:05:07.613Z,33.97
2018-11-11T06:07:36.960Z,35.00
2018-11-11T06:10:07.151Z,32.43
2018-11-11T06:12:37.094Z,38.70
2018-11-11T06:15:07.322Z,33.67
2018-11-11T06:17:36.644Z,35.10
2018-11-11T06:20:07.299Z,33.63
2018-11-11T06:22:36.088Z,37.87
2018-11-11T06:25:05.829Z,35.60
2018-11-11T06:27:34.566Z,29.00
2018-11-11T06:30:05.275Z,35.87
2018-11-11T06:32:33.962Z,31.03
2018-11-11T06:35:02.645Z,33.23
2018-11-11T06:37:32.381Z,32.00
2018-11-11T06:40:01.254Z,35.00
2018-11-11T06:42:31.113Z,32.40
2018-11-11T06:44:59.793Z,31.40
2018-11-11T06:47:29.400Z,31.03
2018-11-11T06:49:58.272Z,32.30
2018-11-11T06:52:27.056Z,32.20
2018-11-11T06:54:55.882Z,31.67
2018-11-11T06:57:25.218Z,28.90
2018-11-11T06:59:53.883Z,28.77
2018-11-11T07:02:31.918Z,35.67
2018-11-11T07:05:00.932Z,31.37
2018-11-11T07:07:29.846Z,34.47
2018-11-11T07:09:58.857Z,26.50
2018-11-11T07:12:27.509Z,33.50
2018-11-11T07:14:56.332Z,29.20
2018-11-11T07:17:27.079Z,29.10
2018-11-11T07:19:55.855Z,27.73
2018-11-11T07:22:25.142Z,30.40
2018-11-11T07:24:55.019Z,30.10
2018-11-11T07:27:23.734Z,26.87
2018-11-11T07:29:52.730Z,28.07
2018-11-11T07:32:21.550Z,33.30
2018-11-11T07:34:50.929Z,26.40
2018-11-11T07:37:19.637Z,26.80
2018-11-11T07:39:49.914Z,28.43
2018-11-11T07:42:18.609Z,27.43
2018-11-11T07:44:47.301Z,28.53
2018-11-11T07:47:16.875Z,30.20
2018-11-11T07:49:45.580Z,28.27
2018-11-11T07:52:14.278Z,26.30
2018-11-11T07:54:44.546Z,30.97
2018-11-11T07:57:13.286Z,35.17
2018-11-11T07:59:42.979Z,34.40
2018-11-11T08:02:11.701Z,27.17
2018-11-11T08:04:40.413Z,27.63
2018-11-11T08:07:10.425Z,34.17
2018-11-11T08:09:39.161Z,30.20
2018-11-11T08:12:08.143Z,28.63
2018-11-11T08:14:36.833Z,34.70
2018-11-11T08:17:07.188Z,31.33
2018-11-11T08:19:36.044Z,27.70
2018-11-11T08:22:05.881Z,32.10
2018-11-11T08:24:34.649Z,32.27
2018-11-11T08:27:03.283Z,34.33
2018-11-11T08:29:32.083Z,29.83
2018-11-11T08:32:04.116Z,29.00
2018-11-11T08:34:32.877Z,31.63
2018-11-11T08:37:03.442Z,32.17
2018-11-11T08:39:32.270Z,32.73
2018-11-11T08:42:01.654Z,32.23
2018-11-11T08:44:30.432Z,27.53
2018-11-11T08:46:59.136Z,30.80
2018-11-11T08:49:30.012Z,31.97
2018-11-11T08:51:58.726Z,28.77
2018-11-11T08:54:27.534Z,31.60
2018-11-11T08:56:56.228Z,30.17
2018-11-11T08:59:24.929Z,31.97
2018-11-11T09:01:54.990Z,32.10
2018-11-11T09:04:23.743Z,28.67
2018-11-11T09:06:53.289Z,26.43
2018-11-11T09:09:21.977Z,29.27
2018-11-11T09:11:50.675Z,29.63
2018-11-11T09:14:22.406Z,30.57
2018-11-11T09:16:51.107Z,29.73
2018-11-11T09:19:19.757Z,26.43
2018-11-11T09:21:48.466Z,27.97
2018-11-11T09:24:18.891Z,27.40
2018-11-11T09:26:47.702Z,29.40
2018-11-11T09:29:16.439Z,32.33
2018-11-11T09:31:45.040Z,28.03
2018-11-11T09:34:13.688Z,27.40
2018-11-11T09:36:46.281Z,27.43
2018-11-11T09:39:15.038Z,28.30
2018-11-11T09:41:43.640Z,25.97
2018-11-11T09:44:12.374Z,28.40
2018-11-11T09:46:42.652Z,21.93
2018-11-11T09:49:11.312Z,27.70
2018-11-11T09:51:45.481Z,21.43
2018-11-11T09:54:15.103Z,24.37
2018-11-11T09:56:44.530Z,22.30
2018-11-11T09:59:13.192Z,20.80
2018-11-11T10:01:41.824Z,25.63
2018-11-11T10:04:17.440Z,23.20
2018-11-11T10:09:45.235Z,24.57
2018-11-11T10:12:20.592Z,24.67
2018-11-11T10:14:54.840Z,19.30
2018-11-11T10:21:43.914Z,18.67
2018-11-11T10:24:21.014Z,22.23
2018-11-11T10:27:07.333Z,19.53
2018-11-11T10:29:43.477Z,17.30
2018-11-11T10:32:29.352Z,17.70
2018-11-11T10:35:11.515Z,17.43
2018-11-11T10:37:47.941Z,15.33
2018-11-11T10:40:24.821Z,15.90
2018-11-11T10:43:01.794Z,15.90
2018-11-11T10:45:38.851Z,18.27
2018-11-11T10:48:09.000Z,15.13
2018-11-11T10:50:42.673Z,16.17
2018-11-11T10:53:11.323Z,17.47
2018-11-11T10:55:39.984Z,17.17
2018-11-11T10:58:08.787Z,13.70
2018-11-11T11:00:42.899Z,14.93
2018-11-11T11:03:18.661Z,15.70
2018-11-11T11:05:47.869Z,17.10
2018-11-11T11:08:16.631Z,16.90
2018-11-11T11:10:45.219Z,16.97
2018-11-11T11:13:14.026Z,14.37
2018-11-11T11:15:42.609Z,13.13
2018-11-11T11:18:11.273Z,15.03
2018-11-11T11:20:39.937Z,14.00
2018-11-11T11:23:08.806Z,15.03
2018-11-11T11:25:42.350Z,13.43
2018-11-11T11:28:11.010Z,12.60
2018-11-11T11:30:40.811Z,18.13
2018-11-11T11:33:09.448Z,12.80
2018-11-11T11:35:41.047Z,14.67
2018-11-11T11:38:10.646Z,14.30
2018-11-11T11:40:39.322Z,12.40
2018-11-11T11:43:07.985Z,14.93
2018-11-11T11:45:37.390Z,15.77
2018-11-11T11:48:06.009Z,11.70
2018-11-11T11:50:37.589Z,15.87
2018-11-11T11:53:06.554Z,12.27
2018-11-11T11:55:35.157Z,11.27
2018-11-11T11:58:29.046Z,12.20
2018-11-11T12:00:57.894Z,11.50
2018-11-11T12:03:26.559Z,13.43
2018-11-11T12:05:55.349Z,12.77
2018-11-11T12:08:25.953Z,14.00
2018-11-11T12:10:55.546Z,10.43
2018-11-11T12:13:24.219Z,12.23
2018-11-11T12:15:54.125Z,11.53
2018-11-11T12:18:22.807Z,12.53
2018-11-11T12:20:52.785Z,12.73
2018-11-11T12:23:21.470Z,12.10
2018-11-11T12:25:50.668Z,13.00
2018-11-11T12:28:19.354Z,12.83
2018-11-11T12:30:50.634Z,11.30
2018-11-11T12:33:19.304Z,9.50
2018-11-11T12:35:48.602Z,10.90
2018-11-11T12:38:17.293Z,10.97
2018-11-11T12:40:46.311Z,13.80
2018-11-11T12:43:15.022Z,11.03
2018-11-11T12:45:46.333Z,10.20
2018-11-11T12:48:14.949Z,9.87
2018-11-11T12:50:44.094Z,11.77
2018-11-11T12:53:12.732Z,10.80
2018-11-11T12:55:43.894Z,12.67
2018-11-11T12:58:12.794Z,10.10
2018-11-11T13:00:42.119Z,9.70
2018-11-11T13:03:10.865Z,10.53
2018-11-11T13:05:41.199Z,9.60
2018-11-11T13:08:10.472Z,9.20
2018-11-11T13:10:39.324Z,8.70
2018-11-11T13:13:08.032Z,9.23
2018-11-11T13:15:38.777Z,7.80
2018-11-11T13:18:07.524Z,8.37
2018-11-11T13:20:36.172Z,10.90
2018-11-11T13:23:05.048Z,8.20
2018-11-11T13:25:33.912Z,7.73
2018-11-11T13:28:03.118Z,8.97
2018-11-11T13:30:31.775Z,9.07
2018-11-11T13:33:00.675Z,7.70
2018-11-11T13:35:29.386Z,7.90
2018-11-11T13:37:58.357Z,7.30
2018-11-11T13:40:27.754Z,10.23
2018-11-11T13:42:56.895Z,8.17
2018-11-11T13:45:25.766Z,7.67
2018-11-11T13:47:54.536Z,9.23
2018-11-11T13:50:25.265Z,12.10
2018-11-11T13:52:54.565Z,11.00
2018-11-11T13:55:24.458Z,11.73
2018-11-11T13:57:53.632Z,11.90
2018-11-11T14:00:23.723Z,12.17
2018-11-11T14:02:52.837Z,13.70
2018-11-11T14:05:21.751Z,13.07
2018-11-11T14:07:51.377Z,11.33
2018-11-11T14:10:20.069Z,10.30
2018-11-11T14:12:48.771Z,11.87
2018-11-11T14:15:19.986Z,12.43
2018-11-11T14:17:49.782Z,12.03
2018-11-11T14:20:19.780Z,10.20
2018-11-11T14:22:51.726Z,10.37
2018-11-11T14:25:24.333Z,12.03
2018-11-11T14:27:53.149Z,11.00
2018-11-11T14:30:28.478Z,11.50
2018-11-11T14:32:58.184Z,9.10
2018-11-11T14:35:28.252Z,8.33
2018-11-11T14:37:59.064Z,8.57
2018-11-11T14:40:29.448Z,8.53
2018-11-11T14:42:58.222Z,9.47
2018-11-11T14:45:27.629Z,10.03
2018-11-11T14:47:56.981Z,9.73
2018-11-11T14:50:26.224Z,8.63
2018-11-11T14:52:55.123Z,8.87
2018-11-11T14:55:28.641Z,10.83
2018-11-11T14:57:59.716Z,9.20
2018-11-11T15:00:29.791Z,9.50
2018-11-11T15:03:05.906Z,9.13
2018-11-11T15:05:35.353Z,9.20
2018-11-11T15:08:04.149Z,9.30
2018-11-11T15:10:37.640Z,11.37
2018-11-11T15:13:07.468Z,13.40
2018-11-11T15:15:36.369Z,9.30
2018-11-11T15:18:08.760Z,9.47
2018-11-11T15:20:38.002Z,9.60
2018-11-11T15:23:06.921Z,10.30
2018-11-11T15:25:37.822Z,10.10
2018-11-11T15:28:07.221Z,9.50
2018-11-11T15:30:37.997Z,11.90
2018-11-11T15:33:07.332Z,9.60
2018-11-11T15:35:36.103Z,14.10
2018-11-11T15:38:05.507Z,10.70
2018-11-11T15:40:35.532Z,15.20
2018-11-11T15:43:04.547Z,9.73
2018-11-11T15:45:37.328Z,9.97
2018-11-11T15:48:07.038Z,11.97
2018-11-11T15:50:36.784Z,12.97
2018-11-11T15:53:07.213Z,11.23
2018-11-11T15:55:37.180Z,9.60
2018-11-11T15:58:06.458Z,9.83
2018-11-11T16:00:36.749Z,15.00
2018-11-11T16:03:05.812Z,10.30
2018-11-11T16:05:34.552Z,10.93
2018-11-11T16:08:03.436Z,12.13
2018-11-11T16:10:32.877Z,9.40
2018-11-11T16:13:01.573Z,10.83
2018-11-11T16:15:32.665Z,11.90
2018-11-11T16:18:03.102Z,11.33
2018-11-11T16:20:32.301Z,10.00
2018-11-11T16:23:01.920Z,12.60
2018-11-11T16:25:30.794Z,13.53
2018-11-11T16:28:00.356Z,13.20
2018-11-11T16:30:30.766Z,12.07
2018-11-11T16:33:00.602Z,11.83
2018-11-11T16:35:29.971Z,10.53
2018-11-11T16:37:59.257Z,12.77
2018-11-11T16:40:29.340Z,9.60
2018-11-11T16:42:58.495Z,12.10
2018-11-11T16:45:28.516Z,13.53
2018-11-11T16:47:59.780Z,11.80
2018-11-11T16:50:30.860Z,12.10
2018-11-11T16:53:04.487Z,11.40
2018-11-11T16:55:34.022Z,11.13
2018-11-11T16:58:02.916Z,10.97
2018-11-11T17:00:33.601Z,13.20
2018-11-11T17:03:05.598Z,13.60
2018-11-11T17:05:37.085Z,14.33
2018-11-11T17:08:06.223Z,13.13
2018-11-11T17:10:36.221Z,14.90
2018-11-11T17:13:06.754Z,13.40
2018-11-11T17:15:37.014Z,15.83
2018-11-11T17:18:07.097Z,14.43
2018-11-11T17:20:35.905Z,14.63
2018-11-11T17:23:07.475Z,12.30
2018-11-11T17:25:38.922Z,14.67
2018-11-11T17:28:07.871Z,17.33
2018-11-11T17:30:37.101Z,19.03
2018-11-11T17:33:06.050Z,17.03
2018-11-11T17:35:35.834Z,18.73
2018-11-11T17:38:05.257Z,16.43
2018-11-11T17:40:33.900Z,17.07
2018-11-11T17:43:03.888Z,12.20
2018-11-11T17:45:32.600Z,12.77
2018-11-11T17:48:01.257Z,12.73
2018-11-11T17:50:31.453Z,13.00
2018-11-11T17:53:01.302Z,12.93
2018-11-11T17:55:30.456Z,11.30
2018-11-11T17:58:00.291Z,11.47
2018-11-11T18:00:30.296Z,11.70
2018-11-11T18:02:59.828Z,14.57
2018-11-11T18:05:29.477Z,14.73
2018-11-11T18:07:58.810Z,12.57
2018-11-11T18:10:27.915Z,10.40
2018-11-11T18:12:57.090Z,11.80
2018-11-11T18:15:28.185Z,13.13
2018-11-11T18:17:57.452Z,12.83
2018-11-11T18:20:28.941Z,13.33
2018-11-11T18:22:58.808Z,18.43
2018-11-11T18:25:27.423Z,12.50
2018-11-11T18:27:56.199Z,14.10
2018-11-11T18:30:28.067Z,10.10
2018-11-11T18:32:56.776Z,11.10
2018-11-11T18:35:25.448Z,12.90
2018-11-11T18:37:54.112Z,11.10
2018-11-11T18:40:24.402Z,11.00
2018-11-11T18:42:53.070Z,10.73
2018-11-11T18:45:23.258Z,10.30
2018-11-11T18:47:53.159Z,12.90
2018-11-11T18:50:23.603Z,11.27
2018-11-11T18:52:52.303Z,13.10
2018-11-11T18:55:21.935Z,11.30
2018-11-11T18:57:50.926Z,12.23
2018-11-11T19:00:24.818Z,10.83
2018-11-11T19:02:54.311Z,11.17
2018-11-11T19:05:24.196Z,12.70
2018-11-11T19:07:53.542Z,11.27
2018-11-11T19:10:25.230Z,11.90
2018-11-11T19:12:55.259Z,9.90
2018-11-11T19:15:24.156Z,11.67
2018-11-11T19:17:53.611Z,14.83
2018-11-11T19:20:23.597Z,12.90
2018-11-11T19:22:52.217Z,10.27
2018-11-11T19:25:22.268Z,11.93
2018-11-11T19:27:52.072Z,12.77
2018-11-11T19:30:22.102Z,11.57
2018-11-11T19:32:52.053Z,12.07
2018-11-11T19:35:20.738Z,10.17
2018-11-11T19:37:50.686Z,9.83
2018-11-11T19:40:21.585Z,10.57
2018-11-11T19:42:50.805Z,9.13
2018-11-11T19:45:20.793Z,15.43
2018-11-11T19:47:49.467Z,11.03
2018-11-11T19:50:19.512Z,15.03
2018-11-11T19:52:49.254Z,10.30
2018-11-11T19:55:18.575Z,9.10
2018-11-11T19:57:47.868Z,11.50
2018-11-11T20:00:33.569Z,9.60
2018-11-11T20:03:03.265Z,11.67
2018-11-11T20:05:32.186Z,12.50
2018-11-11T20:08:01.508Z,9.87
2018-11-11T20:10:30.758Z,11.27
2018-11-11T20:13:00.394Z,10.40
2018-11-11T20:15:30.735Z,9.30
2018-11-11T20:17:59.479Z,10.87
2018-11-11T20:20:30.018Z,8.03
2018-11-11T20:22:58.665Z,8.60
2018-11-11T20:25:27.304Z,9.07
2018-11-11T20:27:56.728Z,13.23
2018-11-11T20:30:26.601Z,9.87
2018-11-11T20:32:55.406Z,9.30
2018-11-11T20:35:25.798Z,9.47
2018-11-11T20:37:54.606Z,9.03
2018-11-11T20:40:24.236Z,8.60
2018-11-11T20:42:53.300Z,9.60
2018-11-11T20:45:23.262Z,11.50
2018-11-11T20:47:53.020Z,7.50
2018-11-11T20:50:23.031Z,9.67
2018-11-11T20:52:54.280Z,8.97
2018-11-11T20:55:23.188Z,9.93
2018-11-11T20:57:52.088Z,7.47
2018-11-11T21:00:22.055Z,8.70
2018-11-11T21:02:50.984Z,9.67
2018-11-11T21:05:21.250Z,9.67
2018-11-11T21:07:50.003Z,9.63
2018-11-11T21:10:20.838Z,9.40
2018-11-11T21:12:49.569Z,7.10
2018-11-11T21:15:19.644Z,9.40
2018-11-11T21:17:48.620Z,8.50
2018-11-11T21:20:18.632Z,8.37
2018-11-11T21:22:47.304Z,10.03
2018-11-11T21:25:15.993Z,9.37
2018-11-11T21:27:45.710Z,7.00
2018-11-11T21:30:15.702Z,9.70
2018-11-11T21:32:44.373Z,12.00
2018-11-11T21:35:13.323Z,9.13
2018-11-11T21:37:42.544Z,9.83
2018-11-11T21:40:14.112Z,8.50
2018-11-11T21:42:43.465Z,14.93
2018-11-11T21:45:13.445Z,11.87
2018-11-11T21:47:42.970Z,9.53
2018-11-11T21:50:21.247Z,10.93
2018-11-11T21:52:59.618Z,9.47
2018-11-11T21:55:28.928Z,9.03
2018-11-11T21:57:57.553Z,10.10
2018-11-11T22:00:26.235Z,9.43
2018-11-11T22:02:55.131Z,10.50
2018-11-11T22:05:23.731Z,12.07
2018-11-11T22:07:52.708Z,9.20
2018-11-11T22:10:21.351Z,9.93
2018-11-11T22:12:50.189Z,11.20
2018-11-11T22:15:18.928Z,9.70
2018-11-11T22:17:47.569Z,8.90
2018-11-11T22:20:17.500Z,8.03
2018-11-11T22:22:46.383Z,9.40
2018-11-11T22:25:15.178Z,8.27
2018-11-11T22:27:43.975Z,9.13
2018-11-11T22:30:12.655Z,7.90
2018-11-11T22:32:41.505Z,6.67
2018-11-11T22:35:11.157Z,7.73
2018-11-11T22:37:39.900Z,8.67
2018-11-11T22:40:10.744Z,16.63
2018-11-11T22:42:39.460Z,49.47
2018-11-11T22:45:10.461Z,15.73
2018-11-11T22:47:39.140Z,15.53
2018-11-11T22:50:09.965Z,10.73
2018-11-11T22:52:39.335Z,9.77
2018-11-11T22:55:09.240Z,8.33
2018-11-11T22:57:37.856Z,6.20
2018-11-11T23:00:16.296Z,6.50
2018-11-11T23:02:45.078Z,7.70
2018-11-11T23:05:14.459Z,7.60
2018-11-11T23:07:43.207Z,6.67
2018-11-11T23:10:12.143Z,10.23
2018-11-11T23:12:40.822Z,8.90
2018-11-11T23:15:10.821Z,10.83
2018-11-11T23:17:39.505Z,10.87
2018-11-11T23:20:09.599Z,7.77
2018-11-11T23:22:38.609Z,8.63
2018-11-11T23:25:08.743Z,19.13
2018-11-11T23:27:37.659Z,8.63
2018-11-11T23:30:09.714Z,7.00
2018-11-11T23:32:38.416Z,7.03
2018-11-11T23:35:07.556Z,9.23
2018-11-11T23:37:36.264Z,8.97
2018-11-11T23:40:06.110Z,6.57
2018-11-11T23:42:34.840Z,9.87
2018-11-11T23:45:03.544Z,9.40
2018-11-11T23:47:32.237Z,6.87
2018-11-11T23:50:00.876Z,10.10
2018-11-11T23:52:29.656Z,8.60
2018-11-11T23:54:58.261Z,9.77
2018-11-11T23:57:27.052Z,9.30
2018-11-11T23:59:55.875Z,8.40
